sensor_id;sensor_type;location;lat;lon;timestamp;P1;durP1;ratioP1;P2;durP2;ratioP2
52586;SDS011;38480;52.724;6.436;2022-10-16T00:01:09;5.93;;;1.87;;
52586;SDS011;38480;52.724;6.436;2022-10-16T00:03:36;12.37;;;2.47;;
52586;SDS011;38480;52.724;6.436;2022-10-16T00:06:03;9.13;;;1.90;;
52586;SDS011;38480;52.724;6.436;2022-10-16T00:08:29;5.83;;;1.80;;
52586;SDS011;38480;52.724;6.436;2022-10-16T00:11:18;8.97;;;2.13;;
52586;SDS011;38480;52.724;6.436;2022-10-16T00:13:42;8.87;;;3.23;;
52586;SDS011;38480;52.724;6.436;2022-10-16T00:16:09;7.00;;;2.43;;
52586;SDS011;38480;52.724;6.436;2022-10-16T00:18:35;7.63;;;2.30;;
52586;SDS011;38480;52.724;6.436;2022-10-16T00:21:15;6.83;;;2.13;;
52586;SDS011;38480;52.724;6.436;2022-10-16T00:23:42;10.80;;;2.27;;
52586;SDS011;38480;52.724;6.436;2022-10-16T00:26:09;10.60;;;2.40;;
52586;SDS011;38480;52.724;6.436;2022-10-16T00:28:36;4.80;;;1.80;;
52586;SDS011;38480;52.724;6.436;2022-10-16T00:31:03;11.47;;;2.30;;
52586;SDS011;38480;52.724;6.436;2022-10-16T00:33:29;9.40;;;2.20;;
52586;SDS011;38480;52.724;6.436;2022-10-16T00:35:57;6.73;;;2.40;;
52586;SDS011;38480;52.724;6.436;2022-10-16T00:38:23;8.50;;;2.57;;
52586;SDS011;38480;52.724;6.436;2022-10-16T00:40:49;7.60;;;1.80;;
52586;SDS011;38480;52.724;6.436;2022-10-16T00:46:01;8.97;;;2.00;;
52586;SDS011;38480;52.724;6.436;2022-10-16T00:48:27;7.97;;;1.77;;
52586;SDS011;38480;52.724;6.436;2022-10-16T00:50:53;11.07;;;2.60;;
52586;SDS011;38480;52.724;6.436;2022-10-16T00:53:19;10.00;;;2.40;;
52586;SDS011;38480;52.724;6.436;2022-10-16T00:55:45;5.10;;;1.63;;
52586;SDS011;38480;52.724;6.436;2022-10-16T00:58:11;7.73;;;2.13;;
52586;SDS011;38480;52.724;6.436;2022-10-16T01:00:38;10.50;;;1.60;;
52586;SDS011;38480;52.724;6.436;2022-10-16T01:03:22;6.20;;;2.13;;
52586;SDS011;38480;52.724;6.436;2022-10-16T01:05:55;5.70;;;1.77;;
52586;SDS011;38480;52.724;6.436;2022-10-16T01:09:02;5.57;;;1.53;;
52586;SDS011;38480;52.724;6.436;2022-10-16T01:12:01;8.63;;;2.13;;
52586;SDS011;38480;52.724;6.436;2022-10-16T01:20:03;5.23;;;2.30;;
52586;SDS011;38480;52.724;6.436;2022-10-16T01:22:20;6.93;;;1.80;;
52586;SDS011;38480;52.724;6.436;2022-10-16T01:24:49;9.23;;;2.00;;
52586;SDS011;38480;52.724;6.436;2022-10-16T01:27:25;8.10;;;1.60;;
52586;SDS011;38480;52.724;6.436;2022-10-16T01:38:23;6.73;;;2.00;;
52586;SDS011;38480;52.724;6.436;2022-10-16T01:40:52;9.68;;;1.90;;
52586;SDS011;38480;52.724;6.436;2022-10-16T01:43:22;4.33;;;1.70;;
52586;SDS011;38480;52.724;6.436;2022-10-16T01:45:50;5.63;;;1.83;;
52586;SDS011;38480;52.724;6.436;2022-10-16T01:48:17;6.17;;;2.47;;
52586;SDS011;38480;52.724;6.436;2022-10-16T01:50:44;10.40;;;2.27;;
52586;SDS011;38480;52.724;6.436;2022-10-16T01:53:14;9.27;;;2.10;;
52586;SDS011;38480;52.724;6.436;2022-10-16T01:55:42;5.97;;;2.20;;
52586;SDS011;38480;52.724;6.436;2022-10-16T01:58:10;7.83;;;2.20;;
52586;SDS011;38480;52.724;6.436;2022-10-16T02:00:38;6.23;;;2.17;;
52586;SDS011;38480;52.724;6.436;2022-10-16T02:03:05;6.97;;;2.17;;
52586;SDS011;38480;52.724;6.436;2022-10-16T02:05:34;6.10;;;2.30;;
52586;SDS011;38480;52.724;6.436;2022-10-16T02:08:02;6.90;;;2.40;;
52586;SDS011;38480;52.724;6.436;2022-10-16T02:10:29;6.13;;;2.50;;
52586;SDS011;38480;52.724;6.436;2022-10-16T02:15:40;6.40;;;2.17;;
52586;SDS011;38480;52.724;6.436;2022-10-16T02:18:07;6.03;;;2.33;;
52586;SDS011;38480;52.724;6.436;2022-10-16T02:20:38;3.23;;;1.87;;
52586;SDS011;38480;52.724;6.436;2022-10-16T02:23:05;7.07;;;2.43;;
52586;SDS011;38480;52.724;6.436;2022-10-16T02:25:37;6.53;;;2.00;;
52586;SDS011;38480;52.724;6.436;2022-10-16T02:28:11;6.57;;;2.37;;
52586;SDS011;38480;52.724;6.436;2022-10-16T02:30:45;6.77;;;2.10;;
52586;SDS011;38480;52.724;6.436;2022-10-16T02:33:13;5.93;;;2.50;;
52586;SDS011;38480;52.724;6.436;2022-10-16T02:35:40;8.50;;;2.83;;
52586;SDS011;38480;52.724;6.436;2022-10-16T02:38:07;4.10;;;2.60;;
52586;SDS011;38480;52.724;6.436;2022-10-16T02:40:34;7.50;;;2.20;;
52586;SDS011;38480;52.724;6.436;2022-10-16T02:43:00;7.90;;;2.60;;
52586;SDS011;38480;52.724;6.436;2022-10-16T02:45:26;5.10;;;2.10;;
52586;SDS011;38480;52.724;6.436;2022-10-16T02:47:52;5.20;;;2.07;;
52586;SDS011;38480;52.724;6.436;2022-10-16T02:50:18;6.67;;;2.27;;
52586;SDS011;38480;52.724;6.436;2022-10-16T02:52:44;7.93;;;3.37;;
52586;SDS011;38480;52.724;6.436;2022-10-16T02:55:10;4.27;;;2.13;;
52586;SDS011;38480;52.724;6.436;2022-10-16T02:57:36;5.27;;;1.93;;
52586;SDS011;38480;52.724;6.436;2022-10-16T03:00:03;9.03;;;2.37;;
52586;SDS011;38480;52.724;6.436;2022-10-16T03:02:29;5.60;;;2.33;;
52586;SDS011;38480;52.724;6.436;2022-10-16T03:04:55;4.37;;;2.20;;
52586;SDS011;38480;52.724;6.436;2022-10-16T03:07:21;8.43;;;2.10;;
52586;SDS011;38480;52.724;6.436;2022-10-16T03:09:47;5.83;;;2.03;;
52586;SDS011;38480;52.724;6.436;2022-10-16T03:12:13;6.43;;;2.27;;
52586;SDS011;38480;52.724;6.436;2022-10-16T03:14:39;5.97;;;1.90;;
52586;SDS011;38480;52.724;6.436;2022-10-16T03:17:05;17.63;;;2.60;;
52586;SDS011;38480;52.724;6.436;2022-10-16T03:19:31;5.20;;;2.30;;
52586;SDS011;38480;52.724;6.436;2022-10-16T03:21:57;5.37;;;1.80;;
52586;SDS011;38480;52.724;6.436;2022-10-16T03:24:23;4.33;;;2.43;;
52586;SDS011;38480;52.724;6.436;2022-10-16T03:26:49;5.60;;;2.03;;
52586;SDS011;38480;52.724;6.436;2022-10-16T03:29:15;4.93;;;2.40;;
52586;SDS011;38480;52.724;6.436;2022-10-16T03:31:41;5.93;;;2.43;;
52586;SDS011;38480;52.724;6.436;2022-10-16T03:34:07;4.27;;;2.20;;
52586;SDS011;38480;52.724;6.436;2022-10-16T03:36:33;6.77;;;2.20;;
52586;SDS011;38480;52.724;6.436;2022-10-16T03:39:00;6.30;;;2.50;;
52586;SDS011;38480;52.724;6.436;2022-10-16T03:41:26;8.47;;;2.17;;
52586;SDS011;38480;52.724;6.436;2022-10-16T03:43:52;4.30;;;2.30;;
52586;SDS011;38480;52.724;6.436;2022-10-16T03:46:18;6.50;;;2.53;;
52586;SDS011;38480;52.724;6.436;2022-10-16T03:48:44;6.77;;;2.80;;
52586;SDS011;38480;52.724;6.436;2022-10-16T03:51:10;6.77;;;2.67;;
52586;SDS011;38480;52.724;6.436;2022-10-16T03:53:36;5.30;;;2.80;;
52586;SDS011;38480;52.724;6.436;2022-10-16T03:56:02;7.33;;;2.97;;
52586;SDS011;38480;52.724;6.436;2022-10-16T03:58:28;7.00;;;2.97;;
52586;SDS011;38480;52.724;6.436;2022-10-16T04:00:54;6.13;;;2.97;;
52586;SDS011;38480;52.724;6.436;2022-10-16T04:03:20;5.07;;;3.10;;
52586;SDS011;38480;52.724;6.436;2022-10-16T04:05:46;6.53;;;2.73;;
52586;SDS011;38480;52.724;6.436;2022-10-16T04:08:12;6.27;;;3.20;;
52586;SDS011;38480;52.724;6.436;2022-10-16T04:10:38;6.43;;;3.03;;
52586;SDS011;38480;52.724;6.436;2022-10-16T04:13:04;5.67;;;3.20;;
52586;SDS011;38480;52.724;6.436;2022-10-16T04:15:30;4.40;;;3.10;;
52586;SDS011;38480;52.724;6.436;2022-10-16T04:17:56;7.07;;;3.40;;
52586;SDS011;38480;52.724;6.436;2022-10-16T04:20:22;6.43;;;2.97;;
52586;SDS011;38480;52.724;6.436;2022-10-16T04:22:48;7.77;;;3.50;;
52586;SDS011;38480;52.724;6.436;2022-10-16T04:25:14;5.77;;;3.60;;
52586;SDS011;38480;52.724;6.436;2022-10-16T04:27:40;4.40;;;2.97;;
52586;SDS011;38480;52.724;6.436;2022-10-16T04:30:06;5.17;;;3.40;;
52586;SDS011;38480;52.724;6.436;2022-10-16T04:32:33;5.63;;;3.50;;
52586;SDS011;38480;52.724;6.436;2022-10-16T04:34:59;9.30;;;3.63;;
52586;SDS011;38480;52.724;6.436;2022-10-16T04:37:25;11.03;;;3.80;;
52586;SDS011;38480;52.724;6.436;2022-10-16T04:39:51;9.20;;;3.27;;
52586;SDS011;38480;52.724;6.436;2022-10-16T04:42:18;6.30;;;3.10;;
52586;SDS011;38480;52.724;6.436;2022-10-16T04:44:44;8.20;;;3.20;;
52586;SDS011;38480;52.724;6.436;2022-10-16T04:47:10;7.73;;;3.33;;
52586;SDS011;38480;52.724;6.436;2022-10-16T04:49:36;6.47;;;3.30;;
52586;SDS011;38480;52.724;6.436;2022-10-16T04:52:02;5.17;;;3.77;;
52586;SDS011;38480;52.724;6.436;2022-10-16T04:54:28;7.37;;;3.50;;
52586;SDS011;38480;52.724;6.436;2022-10-16T04:56:54;6.83;;;3.83;;
52586;SDS011;38480;52.724;6.436;2022-10-16T04:59:20;7.20;;;3.50;;
52586;SDS011;38480;52.724;6.436;2022-10-16T05:01:47;6.80;;;4.20;;
52586;SDS011;38480;52.724;6.436;2022-10-16T05:04:13;7.83;;;3.53;;
52586;SDS011;38480;52.724;6.436;2022-10-16T05:06:40;9.70;;;3.47;;
52586;SDS011;38480;52.724;6.436;2022-10-16T05:09:07;10.40;;;3.43;;
52586;SDS011;38480;52.724;6.436;2022-10-16T05:11:33;8.30;;;3.70;;
52586;SDS011;38480;52.724;6.436;2022-10-16T05:13:59;10.80;;;3.83;;
52586;SDS011;38480;52.724;6.436;2022-10-16T05:16:25;6.00;;;3.40;;
52586;SDS011;38480;52.724;6.436;2022-10-16T05:18:51;7.73;;;3.63;;
52586;SDS011;38480;52.724;6.436;2022-10-16T05:21:18;7.53;;;4.07;;
52586;SDS011;38480;52.724;6.436;2022-10-16T05:23:44;5.57;;;3.70;;
52586;SDS011;38480;52.724;6.436;2022-10-16T05:26:10;8.23;;;3.80;;
52586;SDS011;38480;52.724;6.436;2022-10-16T05:28:36;7.67;;;3.53;;
52586;SDS011;38480;52.724;6.436;2022-10-16T05:31:09;6.80;;;4.33;;
52586;SDS011;38480;52.724;6.436;2022-10-16T05:33:35;8.82;;;3.67;;
52586;SDS011;38480;52.724;6.436;2022-10-16T05:36:02;6.13;;;3.77;;
52586;SDS011;38480;52.724;6.436;2022-10-16T05:38:28;8.30;;;3.30;;
52586;SDS011;38480;52.724;6.436;2022-10-16T05:40:54;11.33;;;3.90;;
52586;SDS011;38480;52.724;6.436;2022-10-16T05:43:21;10.60;;;3.93;;
52586;SDS011;38480;52.724;6.436;2022-10-16T05:45:54;6.70;;;3.73;;
52586;SDS011;38480;52.724;6.436;2022-10-16T05:48:20;10.73;;;3.55;;
52586;SDS011;38480;52.724;6.436;2022-10-16T05:50:47;6.70;;;3.37;;
52586;SDS011;38480;52.724;6.436;2022-10-16T05:53:13;8.33;;;3.27;;
52586;SDS011;38480;52.724;6.436;2022-10-16T05:55:39;5.70;;;3.30;;
52586;SDS011;38480;52.724;6.436;2022-10-16T05:58:05;8.17;;;3.50;;
52586;SDS011;38480;52.724;6.436;2022-10-16T06:00:31;11.27;;;3.20;;
52586;SDS011;38480;52.724;6.436;2022-10-16T06:02:57;7.23;;;3.13;;
52586;SDS011;38480;52.724;6.436;2022-10-16T06:05:23;7.23;;;2.93;;
52586;SDS011;38480;52.724;6.436;2022-10-16T06:07:49;7.40;;;3.73;;
52586;SDS011;38480;52.724;6.436;2022-10-16T06:10:15;4.53;;;3.00;;
52586;SDS011;38480;52.724;6.436;2022-10-16T06:12:41;5.10;;;2.67;;
52586;SDS011;38480;52.724;6.436;2022-10-16T06:15:07;6.13;;;3.07;;
52586;SDS011;38480;52.724;6.436;2022-10-16T06:17:33;8.70;;;2.97;;
52586;SDS011;38480;52.724;6.436;2022-10-16T06:19:59;5.57;;;2.87;;
52586;SDS011;38480;52.724;6.436;2022-10-16T06:22:25;7.30;;;2.60;;
52586;SDS011;38480;52.724;6.436;2022-10-16T06:24:51;5.50;;;2.77;;
52586;SDS011;38480;52.724;6.436;2022-10-16T06:27:17;6.97;;;2.80;;
52586;SDS011;38480;52.724;6.436;2022-10-16T06:29:43;6.73;;;2.30;;
52586;SDS011;38480;52.724;6.436;2022-10-16T06:32:10;6.27;;;2.60;;
52586;SDS011;38480;52.724;6.436;2022-10-16T06:34:36;6.20;;;2.60;;
52586;SDS011;38480;52.724;6.436;2022-10-16T06:37:02;5.40;;;2.57;;
52586;SDS011;38480;52.724;6.436;2022-10-16T06:39:28;7.60;;;2.43;;
52586;SDS011;38480;52.724;6.436;2022-10-16T06:41:54;7.33;;;2.73;;
52586;SDS011;38480;52.724;6.436;2022-10-16T06:44:20;4.50;;;2.27;;
52586;SDS011;38480;52.724;6.436;2022-10-16T06:46:46;6.77;;;2.20;;
52586;SDS011;38480;52.724;6.436;2022-10-16T06:49:12;8.10;;;2.27;;
52586;SDS011;38480;52.724;6.436;2022-10-16T06:51:40;8.00;;;2.30;;
52586;SDS011;38480;52.724;6.436;2022-10-16T06:54:06;6.40;;;2.37;;
52586;SDS011;38480;52.724;6.436;2022-10-16T06:56:33;5.97;;;2.17;;
52586;SDS011;38480;52.724;6.436;2022-10-16T06:58:59;5.43;;;2.37;;
52586;SDS011;38480;52.724;6.436;2022-10-16T07:01:25;6.40;;;2.53;;
52586;SDS011;38480;52.724;6.436;2022-10-16T07:03:52;6.37;;;2.00;;
52586;SDS011;38480;52.724;6.436;2022-10-16T07:06:19;8.63;;;2.83;;
52586;SDS011;38480;52.724;6.436;2022-10-16T07:08:46;6.47;;;2.30;;
52586;SDS011;38480;52.724;6.436;2022-10-16T07:11:13;9.73;;;2.23;;
52586;SDS011;38480;52.724;6.436;2022-10-16T07:13:40;7.30;;;2.23;;
52586;SDS011;38480;52.724;6.436;2022-10-16T07:16:07;6.70;;;2.20;;
52586;SDS011;38480;52.724;6.436;2022-10-16T07:18:34;6.20;;;1.87;;
52586;SDS011;38480;52.724;6.436;2022-10-16T07:23:30;6.47;;;2.20;;
52586;SDS011;38480;52.724;6.436;2022-10-16T07:25:56;4.23;;;1.63;;
52586;SDS011;38480;52.724;6.436;2022-10-16T07:28:22;5.80;;;2.10;;
52586;SDS011;38480;52.724;6.436;2022-10-16T07:30:48;2.90;;;1.47;;
52586;SDS011;38480;52.724;6.436;2022-10-16T07:33:14;5.97;;;1.93;;
52586;SDS011;38480;52.724;6.436;2022-10-16T07:35:50;7.93;;;1.47;;
52586;SDS011;38480;52.724;6.436;2022-10-16T07:38:17;7.70;;;2.07;;
52586;SDS011;38480;52.724;6.436;2022-10-16T07:40:43;4.03;;;1.50;;
52586;SDS011;38480;52.724;6.436;2022-10-16T07:43:09;4.73;;;1.50;;
52586;SDS011;38480;52.724;6.436;2022-10-16T07:45:36;7.47;;;2.37;;
52586;SDS011;38480;52.724;6.436;2022-10-16T07:48:02;8.37;;;1.23;;
52586;SDS011;38480;52.724;6.436;2022-10-16T07:50:28;12.70;;;1.80;;
52586;SDS011;38480;52.724;6.436;2022-10-16T07:52:54;3.93;;;1.00;;
52586;SDS011;38480;52.724;6.436;2022-10-16T07:55:20;3.27;;;1.10;;
52586;SDS011;38480;52.724;6.436;2022-10-16T07:57:46;5.70;;;1.50;;
52586;SDS011;38480;52.724;6.436;2022-10-16T08:00:12;4.37;;;0.97;;
52586;SDS011;38480;52.724;6.436;2022-10-16T08:02:39;5.33;;;1.10;;
52586;SDS011;38480;52.724;6.436;2022-10-16T08:05:05;2.77;;;0.87;;
52586;SDS011;38480;52.724;6.436;2022-10-16T08:07:32;5.93;;;1.00;;
52586;SDS011;38480;52.724;6.436;2022-10-16T08:09:58;3.70;;;0.90;;
52586;SDS011;38480;52.724;6.436;2022-10-16T08:12:24;4.40;;;0.90;;
52586;SDS011;38480;52.724;6.436;2022-10-16T08:14:50;3.57;;;1.17;;
52586;SDS011;38480;52.724;6.436;2022-10-16T08:17:16;3.80;;;1.30;;
52586;SDS011;38480;52.724;6.436;2022-10-16T08:19:46;2.87;;;1.37;;
52586;SDS011;38480;52.724;6.436;2022-10-16T08:22:12;4.20;;;1.80;;
52586;SDS011;38480;52.724;6.436;2022-10-16T08:24:38;7.83;;;1.97;;
52586;SDS011;38480;52.724;6.436;2022-10-16T08:27:04;8.77;;;2.77;;
52586;SDS011;38480;52.724;6.436;2022-10-16T08:29:31;5.30;;;2.43;;
52586;SDS011;38480;52.724;6.436;2022-10-16T08:31:57;8.83;;;2.43;;
52586;SDS011;38480;52.724;6.436;2022-10-16T08:34:24;8.60;;;2.23;;
52586;SDS011;38480;52.724;6.436;2022-10-16T08:36:52;7.27;;;2.13;;
52586;SDS011;38480;52.724;6.436;2022-10-16T08:39:19;4.33;;;1.80;;
52586;SDS011;38480;52.724;6.436;2022-10-16T08:42:01;4.27;;;2.07;;
52586;SDS011;38480;52.724;6.436;2022-10-16T08:47:15;3.43;;;1.50;;
52586;SDS011;38480;52.724;6.436;2022-10-16T08:49:45;7.37;;;1.93;;
52586;SDS011;38480;52.724;6.436;2022-10-16T08:52:15;5.25;;;2.13;;
52586;SDS011;38480;52.724;6.436;2022-10-16T08:54:42;6.97;;;2.03;;
52586;SDS011;38480;52.724;6.436;2022-10-16T08:57:11;3.30;;;1.73;;
52586;SDS011;38480;52.724;6.436;2022-10-16T08:59:37;5.90;;;1.63;;
52586;SDS011;38480;52.724;6.436;2022-10-16T09:02:08;5.27;;;1.40;;
52586;SDS011;38480;52.724;6.436;2022-10-16T09:04:51;5.30;;;1.60;;
52586;SDS011;38480;52.724;6.436;2022-10-16T09:09:49;7.07;;;1.97;;
52586;SDS011;38480;52.724;6.436;2022-10-16T09:22:42;4.00;;;1.93;;
52586;SDS011;38480;52.724;6.436;2022-10-16T09:25:12;7.00;;;1.47;;
52586;SDS011;38480;52.724;6.436;2022-10-16T09:27:38;10.93;;;1.67;;
52586;SDS011;38480;52.724;6.436;2022-10-16T09:30:15;4.80;;;1.87;;
52586;SDS011;38480;52.724;6.436;2022-10-16T09:32:41;6.60;;;1.87;;
52586;SDS011;38480;52.724;6.436;2022-10-16T09:35:20;8.43;;;1.47;;
52586;SDS011;38480;52.724;6.436;2022-10-16T09:37:48;7.33;;;2.63;;
52586;SDS011;38480;52.724;6.436;2022-10-16T09:40:25;8.40;;;1.63;;
52586;SDS011;38480;52.724;6.436;2022-10-16T09:42:53;8.37;;;1.77;;
52586;SDS011;38480;52.724;6.436;2022-10-16T09:45:23;7.77;;;1.90;;
52586;SDS011;38480;52.724;6.436;2022-10-16T09:47:49;7.70;;;2.10;;
52586;SDS011;38480;52.724;6.436;2022-10-16T09:50:26;8.50;;;1.43;;
52586;SDS011;38480;52.724;6.436;2022-10-16T09:53:14;9.77;;;1.93;;
52586;SDS011;38480;52.724;6.436;2022-10-16T09:55:52;6.60;;;1.70;;
52586;SDS011;38480;52.724;6.436;2022-10-16T09:58:22;5.77;;;1.63;;
52586;SDS011;38480;52.724;6.436;2022-10-16T10:00:50;8.83;;;2.27;;
52586;SDS011;38480;52.724;6.436;2022-10-16T10:05:56;12.40;;;1.83;;
52586;SDS011;38480;52.724;6.436;2022-10-16T10:08:22;6.50;;;1.70;;
52586;SDS011;38480;52.724;6.436;2022-10-16T10:10:48;11.50;;;2.00;;
52586;SDS011;38480;52.724;6.436;2022-10-16T10:13:17;7.57;;;2.00;;
52586;SDS011;38480;52.724;6.436;2022-10-16T10:15:43;7.60;;;1.90;;
52586;SDS011;38480;52.724;6.436;2022-10-16T10:18:19;8.53;;;1.70;;
52586;SDS011;38480;52.724;6.436;2022-10-16T10:20:56;11.07;;;2.00;;
52586;SDS011;38480;52.724;6.436;2022-10-16T10:23:24;10.57;;;1.97;;
52586;SDS011;38480;52.724;6.436;2022-10-16T10:31:13;9.80;;;1.93;;
52586;SDS011;38480;52.724;6.436;2022-10-16T10:33:42;11.20;;;2.00;;
52586;SDS011;38480;52.724;6.436;2022-10-16T10:43:58;8.33;;;2.00;;
52586;SDS011;38480;52.724;6.436;2022-10-16T11:01:54;12.17;;;2.27;;
52586;SDS011;38480;52.724;6.436;2022-10-16T11:07:04;9.97;;;1.73;;
52586;SDS011;38480;52.724;6.436;2022-10-16T11:09:31;8.53;;;2.10;;
52586;SDS011;38480;52.724;6.436;2022-10-16T11:14:44;7.90;;;1.90;;
52586;SDS011;38480;52.724;6.436;2022-10-16T11:17:19;9.27;;;1.70;;
52586;SDS011;38480;52.724;6.436;2022-10-16T11:22:34;7.20;;;1.40;;
52586;SDS011;38480;52.724;6.436;2022-10-16T11:30:04;9.60;;;2.73;;
52586;SDS011;38480;52.724;6.436;2022-10-16T11:35:24;8.17;;;2.50;;
52586;SDS011;38480;52.724;6.436;2022-10-16T11:37:51;13.67;;;2.40;;
52586;SDS011;38480;52.724;6.436;2022-10-16T11:43:02;7.97;;;1.80;;
52586;SDS011;38480;52.724;6.436;2022-10-16T11:45:39;8.93;;;2.40;;
52586;SDS011;38480;52.724;6.436;2022-10-16T11:48:11;10.97;;;1.90;;
52586;SDS011;38480;52.724;6.436;2022-10-16T11:55:46;8.07;;;1.47;;
52586;SDS011;38480;52.724;6.436;2022-10-16T11:58:14;11.57;;;2.00;;
52586;SDS011;38480;52.724;6.436;2022-10-16T12:00:45;11.10;;;2.23;;
52586;SDS011;38480;52.724;6.436;2022-10-16T12:03:21;12.67;;;2.00;;
52586;SDS011;38480;52.724;6.436;2022-10-16T12:08:23;9.00;;;2.30;;
52586;SDS011;38480;52.724;6.436;2022-10-16T12:10:49;6.20;;;1.57;;
52586;SDS011;38480;52.724;6.436;2022-10-16T12:13:32;8.80;;;2.30;;
52586;SDS011;38480;52.724;6.436;2022-10-16T12:16:31;7.90;;;1.95;;
52586;SDS011;38480;52.724;6.436;2022-10-16T12:19:02;15.97;;;2.77;;
52586;SDS011;38480;52.724;6.436;2022-10-16T12:21:31;9.70;;;2.20;;
52586;SDS011;38480;52.724;6.436;2022-10-16T12:23:58;9.83;;;1.97;;
52586;SDS011;38480;52.724;6.436;2022-10-16T12:26:34;9.07;;;2.00;;
52586;SDS011;38480;52.724;6.436;2022-10-16T12:31:48;7.03;;;1.43;;
52586;SDS011;38480;52.724;6.436;2022-10-16T12:34:20;12.60;;;2.43;;
52586;SDS011;38480;52.724;6.436;2022-10-16T12:36:47;9.13;;;1.73;;
52586;SDS011;38480;52.724;6.436;2022-10-16T12:39:20;8.93;;;2.00;;
52586;SDS011;38480;52.724;6.436;2022-10-16T12:41:47;7.33;;;1.67;;
52586;SDS011;38480;52.724;6.436;2022-10-16T12:44:25;9.30;;;2.10;;
52586;SDS011;38480;52.724;6.436;2022-10-16T12:46:51;6.07;;;1.50;;
52586;SDS011;38480;52.724;6.436;2022-10-16T12:49:21;10.07;;;1.90;;
52586;SDS011;38480;52.724;6.436;2022-10-16T12:51:49;13.10;;;2.50;;
52586;SDS011;38480;52.724;6.436;2022-10-16T12:54:16;11.10;;;2.57;;
52586;SDS011;38480;52.724;6.436;2022-10-16T12:57:03;9.30;;;1.87;;
52586;SDS011;38480;52.724;6.436;2022-10-16T13:07:24;8.65;;;1.77;;
52586;SDS011;38480;52.724;6.436;2022-10-16T13:10:00;7.57;;;1.63;;
52586;SDS011;38480;52.724;6.436;2022-10-16T13:15:24;7.63;;;1.63;;
52586;SDS011;38480;52.724;6.436;2022-10-16T13:21:04;11.70;;;2.40;;
52586;SDS011;38480;52.724;6.436;2022-10-16T13:23:26;8.50;;;1.70;;
52586;SDS011;38480;52.724;6.436;2022-10-16T13:28:22;8.23;;;2.67;;
52586;SDS011;38480;52.724;6.436;2022-10-16T13:30:55;10.40;;;1.77;;
52586;SDS011;38480;52.724;6.436;2022-10-16T13:33:33;8.97;;;1.60;;
52586;SDS011;38480;52.724;6.436;2022-10-16T13:36:01;7.83;;;1.53;;
52586;SDS011;38480;52.724;6.436;2022-10-16T13:38:29;6.33;;;2.10;;
52586;SDS011;38480;52.724;6.436;2022-10-16T13:41:04;6.77;;;1.53;;
52586;SDS011;38480;52.724;6.436;2022-10-16T13:43:38;7.00;;;1.70;;
52586;SDS011;38480;52.724;6.436;2022-10-16T13:46:05;7.03;;;1.77;;
52586;SDS011;38480;52.724;6.436;2022-10-16T13:48:32;8.33;;;1.93;;
52586;SDS011;38480;52.724;6.436;2022-10-16T13:50:59;4.93;;;1.67;;
52586;SDS011;38480;52.724;6.436;2022-10-16T13:53:25;9.37;;;1.70;;
52586;SDS011;38480;52.724;6.436;2022-10-16T13:55:51;9.20;;;2.20;;
52586;SDS011;38480;52.724;6.436;2022-10-16T13:58:17;7.87;;;1.87;;
52586;SDS011;38480;52.724;6.436;2022-10-16T14:00:56;10.13;;;2.13;;
52586;SDS011;38480;52.724;6.436;2022-10-16T14:03:23;6.90;;;1.33;;
52586;SDS011;38480;52.724;6.436;2022-10-16T14:05:54;7.77;;;1.60;;
52586;SDS011;38480;52.724;6.436;2022-10-16T14:08:21;7.00;;;1.83;;
52586;SDS011;38480;52.724;6.436;2022-10-16T14:10:51;8.20;;;1.83;;
52586;SDS011;38480;52.724;6.436;2022-10-16T14:13:19;9.93;;;2.33;;
52586;SDS011;38480;52.724;6.436;2022-10-16T14:15:49;10.50;;;1.73;;
52586;SDS011;38480;52.724;6.436;2022-10-16T14:18:18;8.03;;;1.57;;
52586;SDS011;38480;52.724;6.436;2022-10-16T14:20:44;13.73;;;1.87;;
52586;SDS011;38480;52.724;6.436;2022-10-16T14:23:20;13.23;;;2.27;;
52586;SDS011;38480;52.724;6.436;2022-10-16T14:25:47;7.50;;;1.47;;
52586;SDS011;38480;52.724;6.436;2022-10-16T14:30:48;11.53;;;2.77;;
52586;SDS011;38480;52.724;6.436;2022-10-16T14:36:02;9.40;;;1.50;;
52586;SDS011;38480;52.724;6.436;2022-10-16T14:38:29;6.13;;;1.80;;
52586;SDS011;38480;52.724;6.436;2022-10-16T14:40:57;8.60;;;1.70;;
52586;SDS011;38480;52.724;6.436;2022-10-16T14:43:29;5.27;;;1.30;;
52586;SDS011;38480;52.724;6.436;2022-10-16T14:45:57;7.13;;;1.37;;
52586;SDS011;38480;52.724;6.436;2022-10-16T14:48:23;6.30;;;1.57;;
52586;SDS011;38480;52.724;6.436;2022-10-16T14:50:49;6.27;;;1.23;;
52586;SDS011;38480;52.724;6.436;2022-10-16T14:53:15;11.17;;;1.87;;
52586;SDS011;38480;52.724;6.436;2022-10-16T14:55:42;7.33;;;1.40;;
52586;SDS011;38480;52.724;6.436;2022-10-16T14:58:15;10.23;;;1.70;;
52586;SDS011;38480;52.724;6.436;2022-10-16T15:00:41;8.30;;;1.67;;
52586;SDS011;38480;52.724;6.436;2022-10-16T15:03:07;6.67;;;1.97;;
52586;SDS011;38480;52.724;6.436;2022-10-16T15:05:34;7.23;;;1.30;;
52586;SDS011;38480;52.724;6.436;2022-10-16T15:08:00;6.97;;;1.20;;
52586;SDS011;38480;52.724;6.436;2022-10-16T15:10:26;8.77;;;1.83;;
52586;SDS011;38480;52.724;6.436;2022-10-16T15:12:53;10.77;;;2.00;;
52586;SDS011;38480;52.724;6.436;2022-10-16T15:17:51;9.57;;;2.07;;
52586;SDS011;38480;52.724;6.436;2022-10-16T15:20:20;7.80;;;1.43;;
52586;SDS011;38480;52.724;6.436;2022-10-16T15:22:46;9.97;;;1.37;;
52586;SDS011;38480;52.724;6.436;2022-10-16T15:25:35;7.67;;;1.93;;
52586;SDS011;38480;52.724;6.436;2022-10-16T15:27:59;6.87;;;1.47;;
52586;SDS011;38480;52.724;6.436;2022-10-16T15:30:26;6.30;;;1.80;;
52586;SDS011;38480;52.724;6.436;2022-10-16T15:32:52;8.03;;;2.00;;
52586;SDS011;38480;52.724;6.436;2022-10-16T15:35:18;6.27;;;1.83;;
52586;SDS011;38480;52.724;6.436;2022-10-16T15:37:46;6.03;;;1.53;;
52586;SDS011;38480;52.724;6.436;2022-10-16T15:40:12;9.03;;;2.40;;
52586;SDS011;38480;52.724;6.436;2022-10-16T15:42:38;9.00;;;2.03;;
52586;SDS011;38480;52.724;6.436;2022-10-16T15:45:04;8.13;;;2.13;;
52586;SDS011;38480;52.724;6.436;2022-10-16T15:47:31;8.03;;;1.77;;
52586;SDS011;38480;52.724;6.436;2022-10-16T15:49:57;6.13;;;2.20;;
52586;SDS011;38480;52.724;6.436;2022-10-16T15:52:24;8.07;;;2.03;;
52586;SDS011;38480;52.724;6.436;2022-10-16T15:54:50;8.23;;;1.73;;
52586;SDS011;38480;52.724;6.436;2022-10-16T15:57:16;12.13;;;4.27;;
52586;SDS011;38480;52.724;6.436;2022-10-16T15:59:42;11.30;;;2.97;;
52586;SDS011;38480;52.724;6.436;2022-10-16T16:02:08;12.00;;;3.87;;
52586;SDS011;38480;52.724;6.436;2022-10-16T16:04:34;16.47;;;5.47;;
52586;SDS011;38480;52.724;6.436;2022-10-16T16:07:00;10.00;;;3.20;;
52586;SDS011;38480;52.724;6.436;2022-10-16T16:09:28;12.13;;;3.40;;
52586;SDS011;38480;52.724;6.436;2022-10-16T16:11:54;16.67;;;3.33;;
52586;SDS011;38480;52.724;6.436;2022-10-16T16:14:20;12.50;;;3.43;;
52586;SDS011;38480;52.724;6.436;2022-10-16T16:16:46;9.67;;;2.87;;
52586;SDS011;38480;52.724;6.436;2022-10-16T16:19:12;9.10;;;2.57;;
52586;SDS011;38480;52.724;6.436;2022-10-16T16:21:41;8.20;;;2.80;;
52586;SDS011;38480;52.724;6.436;2022-10-16T16:24:07;9.90;;;3.37;;
52586;SDS011;38480;52.724;6.436;2022-10-16T16:26:33;10.33;;;2.73;;
52586;SDS011;38480;52.724;6.436;2022-10-16T16:29:02;8.17;;;2.47;;
52586;SDS011;38480;52.724;6.436;2022-10-16T16:31:29;12.57;;;4.37;;
52586;SDS011;38480;52.724;6.436;2022-10-16T16:33:55;10.60;;;4.17;;
52586;SDS011;38480;52.724;6.436;2022-10-16T16:36:24;16.57;;;5.87;;
52586;SDS011;38480;52.724;6.436;2022-10-16T16:38:51;11.33;;;4.70;;
52586;SDS011;38480;52.724;6.436;2022-10-16T16:41:21;14.60;;;4.77;;
52586;SDS011;38480;52.724;6.436;2022-10-16T16:43:47;12.50;;;5.43;;
52586;SDS011;38480;52.724;6.436;2022-10-16T16:46:14;15.43;;;5.33;;
52586;SDS011;38480;52.724;6.436;2022-10-16T16:48:40;13.57;;;4.97;;
52586;SDS011;38480;52.724;6.436;2022-10-16T16:51:07;12.10;;;5.27;;
52586;SDS011;38480;52.724;6.436;2022-10-16T16:53:34;10.30;;;4.90;;